<?xml version="1.0" encoding="UTF-8" standalone="no" ?>
<gpx xmlns="http://www.topografix.com/GPX/1/1" creator="CompeGPS" version="1.1" xmlns:xsi="http://www.w3.org/2001/XMLSchema-instance" xsi:schemaLocation="http://www.topografix.com/GPX/1/1 http://www.topografix.com/GPX/1/1/gpx.xsd http://www.garmin.com/xmlschemas/GpxExtensions/v3 http://www.garmin.com/xmlschemas/GpxExtensionsv3.xsd http://www.garmin.com/xmlschemas/TrackPointExtension/v1 http://www.garmin.com/xmlschemas/TrackPointExtensionv1.xsd" xmlns:gpxtpx="http://www.garmin.com/xmlschemas/TrackPointExtension/v1">
  <metadata>
    <link href="http://www.compegps.com">
      <text>CompeGPS TEAM, SL</text>
    </link>
    <time>2020-06-30T12:57:19Z</time>
    <bounds maxlat="42.954974" maxlon="-0.283735" minlat="42.929225" minlon="-0.295482"/>
  </metadata>
    <wpt lat="42.944700" lon="-0.289610">
    <ele>1978.9</ele>
    <time>2020-06-30T07:56:12Z</time>
    <name>Cabane de Larue</name>
    <desc></desc>
    <sym>Waypoint</sym>
  </wpt>
  <wpt lat="42.930193" lon="-0.294254">
    <ele>2486.7</ele>
    <time>2020-06-30T07:55:54Z</time>
    <name>col 2540m</name>
    <desc></desc>
    <sym>Waypoint</sym>
  </wpt>
  <wpt lat="42.931120" lon="-0.283797">
    <ele>2617.2</ele>
    <time>2020-06-30T07:37:42Z</time>
    <name>Grand Gabizos</name>
    <desc></desc>
    <sym>Waypoint</sym>
  </wpt>
<trk>
    <name>grand_gabizos</name>
    <userMyTwoNav></userMyTwoNav>
    <serialNumber></serialNumber>
    <trkseg>
      <trkpt lat="42.953955" lon="-0.287140">
        <ele>1366.6</ele>
        <time>2020-06-27T08:08:27Z</time>
      </trkpt>
      <trkpt lat="42.953974" lon="-0.287195">
        <ele>1359.8</ele>
        <time>2020-06-27T08:08:31Z</time>
      </trkpt>
      <trkpt lat="42.954029" lon="-0.287300">
        <ele>1359.8</ele>
        <time>2020-06-27T08:08:38Z</time>
      </trkpt>
      <trkpt lat="42.954078" lon="-0.287417">
        <ele>1359.8</ele>
        <time>2020-06-27T08:08:48Z</time>
      </trkpt>
      <trkpt lat="42.954121" lon="-0.287526">
        <ele>1359.9</ele>
        <time>2020-06-27T08:08:57Z</time>
      </trkpt>
      <trkpt lat="42.954174" lon="-0.287648">
        <ele>1360.9</ele>
        <time>2020-06-27T08:09:09Z</time>
      </trkpt>
      <trkpt lat="42.954231" lon="-0.287780">
        <ele>1361.0</ele>
        <time>2020-06-27T08:09:20Z</time>
      </trkpt>
      <trkpt lat="42.954283" lon="-0.287904">
        <ele>1361.0</ele>
        <time>2020-06-27T08:09:29Z</time>
      </trkpt>
      <trkpt lat="42.954306" lon="-0.288047">
        <ele>1361.0</ele>
        <time>2020-06-27T08:09:38Z</time>
      </trkpt>
      <trkpt lat="42.954316" lon="-0.288200">
        <ele>1361.1</ele>
        <time>2020-06-27T08:09:48Z</time>
      </trkpt>
      <trkpt lat="42.954331" lon="-0.288341">
        <ele>1361.1</ele>
        <time>2020-06-27T08:09:57Z</time>
      </trkpt>
      <trkpt lat="42.954358" lon="-0.288483">
        <ele>1361.2</ele>
        <time>2020-06-27T08:10:07Z</time>
      </trkpt>
      <trkpt lat="42.954413" lon="-0.288609">
        <ele>1361.2</ele>
        <time>2020-06-27T08:10:17Z</time>
      </trkpt>
      <trkpt lat="42.954474" lon="-0.288720">
        <ele>1361.3</ele>
        <time>2020-06-27T08:10:26Z</time>
      </trkpt>
      <trkpt lat="42.954538" lon="-0.288848">
        <ele>1362.1</ele>
        <time>2020-06-27T08:10:35Z</time>
      </trkpt>
      <trkpt lat="42.954620" lon="-0.288937">
        <ele>1362.1</ele>
        <time>2020-06-27T08:10:44Z</time>
      </trkpt>
      <trkpt lat="42.954705" lon="-0.289006">
        <ele>1362.2</ele>
        <time>2020-06-27T08:10:53Z</time>
      </trkpt>
      <trkpt lat="42.954788" lon="-0.289083">
        <ele>1362.2</ele>
        <time>2020-06-27T08:11:02Z</time>
      </trkpt>
      <trkpt lat="42.954874" lon="-0.289172">
        <ele>1362.3</ele>
        <time>2020-06-27T08:11:12Z</time>
      </trkpt>
      <trkpt lat="42.954946" lon="-0.289281">
        <ele>1362.3</ele>
        <time>2020-06-27T08:11:21Z</time>
      </trkpt>
      <trkpt lat="42.954974" lon="-0.289424">
        <ele>1362.3</ele>
        <time>2020-06-27T08:11:30Z</time>
      </trkpt>
      <trkpt lat="42.954923" lon="-0.289513">
        <ele>1364.1</ele>
        <time>2020-06-27T08:11:43Z</time>
      </trkpt>
      <trkpt lat="42.954824" lon="-0.289346">
        <ele>1367.5</ele>
        <time>2020-06-27T08:12:00Z</time>
      </trkpt>
      <trkpt lat="42.954732" lon="-0.289244">
        <ele>1372.1</ele>
        <time>2020-06-27T08:12:17Z</time>
      </trkpt>
      <trkpt lat="42.954659" lon="-0.289128">
        <ele>1375.4</ele>
        <time>2020-06-27T08:12:34Z</time>
      </trkpt>
      <trkpt lat="42.954490" lon="-0.289077">
        <ele>1376.4</ele>
        <time>2020-06-27T08:12:52Z</time>
      </trkpt>
      <trkpt lat="42.954360" lon="-0.289034">
        <ele>1380.0</ele>
        <time>2020-06-27T08:13:09Z</time>
      </trkpt>
      <trkpt lat="42.954229" lon="-0.288971">
        <ele>1385.6</ele>
        <time>2020-06-27T08:13:28Z</time>
      </trkpt>
      <trkpt lat="42.954084" lon="-0.288849">
        <ele>1390.3</ele>
        <time>2020-06-27T08:13:47Z</time>
      </trkpt>
      <trkpt lat="42.954010" lon="-0.288757">
        <ele>1395.5</ele>
        <time>2020-06-27T08:14:07Z</time>
      </trkpt>
      <trkpt lat="42.953962" lon="-0.288850">
        <ele>1401.2</ele>
        <time>2020-06-27T08:14:38Z</time>
      </trkpt>
      <trkpt lat="42.953883" lon="-0.288892">
        <ele>1406.8</ele>
        <time>2020-06-27T08:14:59Z</time>
      </trkpt>
      <trkpt lat="42.953855" lon="-0.288953">
        <ele>1412.3</ele>
        <time>2020-06-27T08:15:20Z</time>
      </trkpt>
      <trkpt lat="42.953791" lon="-0.288886">
        <ele>1416.7</ele>
        <time>2020-06-27T08:15:39Z</time>
      </trkpt>
      <trkpt lat="42.953749" lon="-0.288877">
        <ele>1419.3</ele>
        <time>2020-06-27T08:15:56Z</time>
      </trkpt>
      <trkpt lat="42.953690" lon="-0.288733">
        <ele>1423.0</ele>
        <time>2020-06-27T08:16:14Z</time>
      </trkpt>
      <trkpt lat="42.953608" lon="-0.288608">
        <ele>1426.5</ele>
        <time>2020-06-27T08:16:29Z</time>
      </trkpt>
      <trkpt lat="42.953501" lon="-0.288467">
        <ele>1430.8</ele>
        <time>2020-06-27T08:16:47Z</time>
      </trkpt>
      <trkpt lat="42.953527" lon="-0.288359">
        <ele>1431.6</ele>
        <time>2020-06-27T08:17:04Z</time>
      </trkpt>
      <trkpt lat="42.953450" lon="-0.288258">
        <ele>1436.7</ele>
        <time>2020-06-27T08:17:20Z</time>
      </trkpt>
      <trkpt lat="42.953411" lon="-0.288159">
        <ele>1443.6</ele>
        <time>2020-06-27T08:17:41Z</time>
      </trkpt>
      <trkpt lat="42.953496" lon="-0.288084">
        <ele>1448.2</ele>
        <time>2020-06-27T08:18:02Z</time>
      </trkpt>
      <trkpt lat="42.953490" lon="-0.287979">
        <ele>1452.6</ele>
        <time>2020-06-27T08:18:20Z</time>
      </trkpt>
      <trkpt lat="42.953414" lon="-0.287913">
        <ele>1458.8</ele>
        <time>2020-06-27T08:18:43Z</time>
      </trkpt>
      <trkpt lat="42.953326" lon="-0.287848">
        <ele>1464.1</ele>
        <time>2020-06-27T08:19:03Z</time>
      </trkpt>
      <trkpt lat="42.953267" lon="-0.287748">
        <ele>1469.9</ele>
        <time>2020-06-27T08:19:23Z</time>
      </trkpt>
      <trkpt lat="42.953177" lon="-0.287658">
        <ele>1476.1</ele>
        <time>2020-06-27T08:19:44Z</time>
      </trkpt>
      <trkpt lat="42.953091" lon="-0.287545">
        <ele>1482.6</ele>
        <time>2020-06-27T08:20:04Z</time>
      </trkpt>
      <trkpt lat="42.952982" lon="-0.287554">
        <ele>1488.8</ele>
        <time>2020-06-27T08:20:22Z</time>
      </trkpt>
      <trkpt lat="42.952941" lon="-0.287472">
        <ele>1493.6</ele>
        <time>2020-06-27T08:20:45Z</time>
      </trkpt>
      <trkpt lat="42.952816" lon="-0.287473">
        <ele>1499.7</ele>
        <time>2020-06-27T08:21:05Z</time>
      </trkpt>
      <trkpt lat="42.952732" lon="-0.287422">
        <ele>1505.5</ele>
        <time>2020-06-27T08:21:24Z</time>
      </trkpt>
      <trkpt lat="42.952635" lon="-0.287364">
        <ele>1510.1</ele>
        <time>2020-06-27T08:21:43Z</time>
      </trkpt>
      <trkpt lat="42.952575" lon="-0.287304">
        <ele>1512.6</ele>
        <time>2020-06-27T08:23:16Z</time>
      </trkpt>
      <trkpt lat="42.952523" lon="-0.287294">
        <ele>1520.0</ele>
        <time>2020-06-27T08:24:49Z</time>
      </trkpt>
      <trkpt lat="42.952439" lon="-0.287280">
        <ele>1522.6</ele>
        <time>2020-06-27T08:25:09Z</time>
      </trkpt>
      <trkpt lat="42.952343" lon="-0.287258">
        <ele>1529.1</ele>
        <time>2020-06-27T08:25:32Z</time>
      </trkpt>
      <trkpt lat="42.952304" lon="-0.287384">
        <ele>1533.6</ele>
        <time>2020-06-27T08:25:52Z</time>
      </trkpt>
      <trkpt lat="42.952221" lon="-0.287473">
        <ele>1539.4</ele>
        <time>2020-06-27T08:26:17Z</time>
      </trkpt>
      <trkpt lat="42.952160" lon="-0.287414">
        <ele>1543.1</ele>
        <time>2020-06-27T08:26:33Z</time>
      </trkpt>
      <trkpt lat="42.952096" lon="-0.287364">
        <ele>1547.1</ele>
        <time>2020-06-27T08:26:47Z</time>
      </trkpt>
      <trkpt lat="42.952031" lon="-0.287396">
        <ele>1550.6</ele>
        <time>2020-06-27T08:27:03Z</time>
      </trkpt>
      <trkpt lat="42.952028" lon="-0.287277">
        <ele>1552.3</ele>
        <time>2020-06-27T08:27:17Z</time>
      </trkpt>
      <trkpt lat="42.952036" lon="-0.287147">
        <ele>1555.8</ele>
        <time>2020-06-27T08:27:34Z</time>
      </trkpt>
      <trkpt lat="42.951998" lon="-0.287128">
        <ele>1558.7</ele>
        <time>2020-06-27T08:28:22Z</time>
      </trkpt>
      <trkpt lat="42.951957" lon="-0.287017">
        <ele>1561.1</ele>
        <time>2020-06-27T08:28:36Z</time>
      </trkpt>
      <trkpt lat="42.951902" lon="-0.286906">
        <ele>1562.9</ele>
        <time>2020-06-27T08:28:50Z</time>
      </trkpt>
      <trkpt lat="42.951855" lon="-0.286838">
        <ele>1565.4</ele>
        <time>2020-06-27T08:29:25Z</time>
      </trkpt>
      <trkpt lat="42.951806" lon="-0.286918">
        <ele>1569.3</ele>
        <time>2020-06-27T08:29:39Z</time>
      </trkpt>
      <trkpt lat="42.951774" lon="-0.287028">
        <ele>1572.3</ele>
        <time>2020-06-27T08:29:51Z</time>
      </trkpt>
      <trkpt lat="42.951703" lon="-0.287028">
        <ele>1575.3</ele>
        <time>2020-06-27T08:30:05Z</time>
      </trkpt>
      <trkpt lat="42.951641" lon="-0.287118">
        <ele>1578.8</ele>
        <time>2020-06-27T08:30:17Z</time>
      </trkpt>
      <trkpt lat="42.951593" lon="-0.287036">
        <ele>1582.2</ele>
        <time>2020-06-27T08:30:33Z</time>
      </trkpt>
      <trkpt lat="42.951510" lon="-0.287035">
        <ele>1585.9</ele>
        <time>2020-06-27T08:30:48Z</time>
      </trkpt>
      <trkpt lat="42.951439" lon="-0.287051">
        <ele>1591.6</ele>
        <time>2020-06-27T08:31:07Z</time>
      </trkpt>
      <trkpt lat="42.951381" lon="-0.286988">
        <ele>1595.3</ele>
        <time>2020-06-27T08:31:22Z</time>
      </trkpt>
      <trkpt lat="42.951429" lon="-0.286912">
        <ele>1596.2</ele>
        <time>2020-06-27T08:31:38Z</time>
      </trkpt>
      <trkpt lat="42.951363" lon="-0.286910">
        <ele>1599.7</ele>
        <time>2020-06-27T08:31:52Z</time>
      </trkpt>
      <trkpt lat="42.951318" lon="-0.286828">
        <ele>1604.1</ele>
        <time>2020-06-27T08:32:13Z</time>
      </trkpt>
      <trkpt lat="42.951270" lon="-0.286776">
        <ele>1606.9</ele>
        <time>2020-06-27T08:32:33Z</time>
      </trkpt>
      <trkpt lat="42.951261" lon="-0.286640">
        <ele>1609.1</ele>
        <time>2020-06-27T08:32:48Z</time>
      </trkpt>
      <trkpt lat="42.951237" lon="-0.286516">
        <ele>1611.8</ele>
        <time>2020-06-27T08:33:27Z</time>
      </trkpt>
      <trkpt lat="42.951225" lon="-0.286392">
        <ele>1613.8</ele>
        <time>2020-06-27T08:33:39Z</time>
      </trkpt>
      <trkpt lat="42.951180" lon="-0.286287">
        <ele>1615.9</ele>
        <time>2020-06-27T08:33:49Z</time>
      </trkpt>
      <trkpt lat="42.951114" lon="-0.286201">
        <ele>1616.6</ele>
        <time>2020-06-27T08:33:59Z</time>
      </trkpt>
      <trkpt lat="42.951053" lon="-0.286100">
        <ele>1617.5</ele>
        <time>2020-06-27T08:34:08Z</time>
      </trkpt>
      <trkpt lat="42.950985" lon="-0.286005">
        <ele>1621.4</ele>
        <time>2020-06-27T08:34:18Z</time>
      </trkpt>
      <trkpt lat="42.950910" lon="-0.285905">
        <ele>1626.5</ele>
        <time>2020-06-27T08:34:32Z</time>
      </trkpt>
      <trkpt lat="42.950858" lon="-0.285804">
        <ele>1631.0</ele>
        <time>2020-06-27T08:34:45Z</time>
      </trkpt>
      <trkpt lat="42.950793" lon="-0.285721">
        <ele>1634.7</ele>
        <time>2020-06-27T08:34:55Z</time>
      </trkpt>
      <trkpt lat="42.950811" lon="-0.285597">
        <ele>1638.4</ele>
        <time>2020-06-27T08:35:07Z</time>
      </trkpt>
      <trkpt lat="42.950790" lon="-0.285491">
        <ele>1642.1</ele>
        <time>2020-06-27T08:35:34Z</time>
      </trkpt>
      <trkpt lat="42.950828" lon="-0.285350">
        <ele>1642.4</ele>
        <time>2020-06-27T08:35:50Z</time>
      </trkpt>
      <trkpt lat="42.950812" lon="-0.285221">
        <ele>1642.4</ele>
        <time>2020-06-27T08:36:00Z</time>
      </trkpt>
      <trkpt lat="42.950825" lon="-0.285085">
        <ele>1642.3</ele>
        <time>2020-06-27T08:36:08Z</time>
      </trkpt>
      <trkpt lat="42.950825" lon="-0.284947">
        <ele>1643.0</ele>
        <time>2020-06-27T08:36:16Z</time>
      </trkpt>
      <trkpt lat="42.950805" lon="-0.284818">
        <ele>1645.4</ele>
        <time>2020-06-27T08:36:25Z</time>
      </trkpt>
      <trkpt lat="42.950751" lon="-0.284706">
        <ele>1649.4</ele>
        <time>2020-06-27T08:36:35Z</time>
      </trkpt>
      <trkpt lat="42.950772" lon="-0.284586">
        <ele>1654.8</ele>
        <time>2020-06-27T08:36:47Z</time>
      </trkpt>
      <trkpt lat="42.950733" lon="-0.284526">
        <ele>1658.6</ele>
        <time>2020-06-27T08:36:57Z</time>
      </trkpt>
      <trkpt lat="42.950640" lon="-0.284583">
        <ele>1662.7</ele>
        <time>2020-06-27T08:37:09Z</time>
      </trkpt>
      <trkpt lat="42.950556" lon="-0.284653">
        <ele>1668.4</ele>
        <time>2020-06-27T08:37:23Z</time>
      </trkpt>
      <trkpt lat="42.950486" lon="-0.284745">
        <ele>1672.8</ele>
        <time>2020-06-27T08:37:36Z</time>
      </trkpt>
      <trkpt lat="42.950472" lon="-0.284863">
        <ele>1676.7</ele>
        <time>2020-06-27T08:37:50Z</time>
      </trkpt>
      <trkpt lat="42.950455" lon="-0.284943">
        <ele>1680.4</ele>
        <time>2020-06-27T08:38:03Z</time>
      </trkpt>
      <trkpt lat="42.950408" lon="-0.284991">
        <ele>1683.8</ele>
        <time>2020-06-27T08:38:15Z</time>
      </trkpt>
      <trkpt lat="42.950374" lon="-0.285103">
        <ele>1686.5</ele>
        <time>2020-06-27T08:38:28Z</time>
      </trkpt>
      <trkpt lat="42.950321" lon="-0.285060">
        <ele>1690.2</ele>
        <time>2020-06-27T08:38:40Z</time>
      </trkpt>
      <trkpt lat="42.950284" lon="-0.285166">
        <ele>1693.0</ele>
        <time>2020-06-27T08:38:57Z</time>
      </trkpt>
      <trkpt lat="42.950191" lon="-0.285145">
        <ele>1696.1</ele>
        <time>2020-06-27T08:39:10Z</time>
      </trkpt>
      <trkpt lat="42.950086" lon="-0.285136">
        <ele>1698.7</ele>
        <time>2020-06-27T08:39:23Z</time>
      </trkpt>
      <trkpt lat="42.950115" lon="-0.285016">
        <ele>1701.4</ele>
        <time>2020-06-27T08:39:39Z</time>
      </trkpt>
      <trkpt lat="42.950119" lon="-0.284895">
        <ele>1703.1</ele>
        <time>2020-06-27T08:39:54Z</time>
      </trkpt>
      <trkpt lat="42.950075" lon="-0.284801">
        <ele>1704.9</ele>
        <time>2020-06-27T08:40:10Z</time>
      </trkpt>
      <trkpt lat="42.950013" lon="-0.284735">
        <ele>1707.4</ele>
        <time>2020-06-27T08:40:21Z</time>
      </trkpt>
      <trkpt lat="42.949987" lon="-0.284849">
        <ele>1710.0</ele>
        <time>2020-06-27T08:40:30Z</time>
      </trkpt>
      <trkpt lat="42.949912" lon="-0.284916">
        <ele>1712.0</ele>
        <time>2020-06-27T08:40:38Z</time>
      </trkpt>
      <trkpt lat="42.949817" lon="-0.284884">
        <ele>1714.4</ele>
        <time>2020-06-27T08:40:47Z</time>
      </trkpt>
      <trkpt lat="42.949754" lon="-0.284783">
        <ele>1717.7</ele>
        <time>2020-06-27T08:40:56Z</time>
      </trkpt>
      <trkpt lat="42.949685" lon="-0.284674">
        <ele>1721.2</ele>
        <time>2020-06-27T08:41:07Z</time>
      </trkpt>
      <trkpt lat="42.949635" lon="-0.284563">
        <ele>1725.0</ele>
        <time>2020-06-27T08:41:18Z</time>
      </trkpt>
      <trkpt lat="42.949620" lon="-0.284438">
        <ele>1728.1</ele>
        <time>2020-06-27T08:41:30Z</time>
      </trkpt>
      <trkpt lat="42.949615" lon="-0.284309">
        <ele>1730.7</ele>
        <time>2020-06-27T08:41:42Z</time>
      </trkpt>
      <trkpt lat="42.949619" lon="-0.284181">
        <ele>1733.6</ele>
        <time>2020-06-27T08:41:53Z</time>
      </trkpt>
      <trkpt lat="42.949651" lon="-0.284053">
        <ele>1736.2</ele>
        <time>2020-06-27T08:42:04Z</time>
      </trkpt>
      <trkpt lat="42.949692" lon="-0.283928">
        <ele>1738.9</ele>
        <time>2020-06-27T08:42:16Z</time>
      </trkpt>
      <trkpt lat="42.949636" lon="-0.283902">
        <ele>1741.9</ele>
        <time>2020-06-27T08:42:30Z</time>
      </trkpt>
      <trkpt lat="42.949541" lon="-0.283929">
        <ele>1745.7</ele>
        <time>2020-06-27T08:42:42Z</time>
      </trkpt>
      <trkpt lat="42.949451" lon="-0.283933">
        <ele>1748.6</ele>
        <time>2020-06-27T08:42:54Z</time>
      </trkpt>
      <trkpt lat="42.949354" lon="-0.283963">
        <ele>1752.4</ele>
        <time>2020-06-27T08:43:11Z</time>
      </trkpt>
      <trkpt lat="42.949273" lon="-0.284005">
        <ele>1755.5</ele>
        <time>2020-06-27T08:43:22Z</time>
      </trkpt>
      <trkpt lat="42.949174" lon="-0.284004">
        <ele>1759.3</ele>
        <time>2020-06-27T08:43:36Z</time>
      </trkpt>
      <trkpt lat="42.949062" lon="-0.284017">
        <ele>1764.3</ele>
        <time>2020-06-27T08:43:53Z</time>
      </trkpt>
      <trkpt lat="42.948981" lon="-0.284089">
        <ele>1768.1</ele>
        <time>2020-06-27T08:44:07Z</time>
      </trkpt>
      <trkpt lat="42.948895" lon="-0.284161">
        <ele>1771.9</ele>
        <time>2020-06-27T08:44:22Z</time>
      </trkpt>
      <trkpt lat="42.948861" lon="-0.284287">
        <ele>1774.6</ele>
        <time>2020-06-27T08:44:35Z</time>
      </trkpt>
      <trkpt lat="42.948811" lon="-0.284398">
        <ele>1777.2</ele>
        <time>2020-06-27T08:44:48Z</time>
      </trkpt>
      <trkpt lat="42.948761" lon="-0.284495">
        <ele>1778.9</ele>
        <time>2020-06-27T08:44:59Z</time>
      </trkpt>
      <trkpt lat="42.948737" lon="-0.284612">
        <ele>1780.7</ele>
        <time>2020-06-27T08:45:09Z</time>
      </trkpt>
      <trkpt lat="42.948695" lon="-0.284521">
        <ele>1783.4</ele>
        <time>2020-06-27T08:45:22Z</time>
      </trkpt>
      <trkpt lat="42.948652" lon="-0.284428">
        <ele>1785.2</ele>
        <time>2020-06-27T08:45:47Z</time>
      </trkpt>
      <trkpt lat="42.948549" lon="-0.284507">
        <ele>1788.6</ele>
        <time>2020-06-27T08:46:02Z</time>
      </trkpt>
      <trkpt lat="42.948502" lon="-0.284563">
        <ele>1791.7</ele>
        <time>2020-06-27T08:46:15Z</time>
      </trkpt>
      <trkpt lat="42.948466" lon="-0.284531">
        <ele>1794.2</ele>
        <time>2020-06-27T08:46:33Z</time>
      </trkpt>
      <trkpt lat="42.948415" lon="-0.284614">
        <ele>1796.7</ele>
        <time>2020-06-27T08:46:54Z</time>
      </trkpt>
      <trkpt lat="42.948352" lon="-0.284696">
        <ele>1799.5</ele>
        <time>2020-06-27T08:47:10Z</time>
      </trkpt>
      <trkpt lat="42.948314" lon="-0.284791">
        <ele>1804.2</ele>
        <time>2020-06-27T08:47:25Z</time>
      </trkpt>
      <trkpt lat="42.948246" lon="-0.284870">
        <ele>1806.9</ele>
        <time>2020-06-27T08:47:37Z</time>
      </trkpt>
      <trkpt lat="42.948183" lon="-0.284961">
        <ele>1809.5</ele>
        <time>2020-06-27T08:47:49Z</time>
      </trkpt>
      <trkpt lat="42.948141" lon="-0.285063">
        <ele>1812.1</ele>
        <time>2020-06-27T08:48:02Z</time>
      </trkpt>
      <trkpt lat="42.948109" lon="-0.285179">
        <ele>1814.8</ele>
        <time>2020-06-27T08:48:14Z</time>
      </trkpt>
      <trkpt lat="42.948049" lon="-0.285273">
        <ele>1818.3</ele>
        <time>2020-06-27T08:48:26Z</time>
      </trkpt>
      <trkpt lat="42.948119" lon="-0.285360">
        <ele>1821.9</ele>
        <time>2020-06-27T08:48:40Z</time>
      </trkpt>
      <trkpt lat="42.948051" lon="-0.285404">
        <ele>1823.6</ele>
        <time>2020-06-27T08:48:52Z</time>
      </trkpt>
      <trkpt lat="42.947954" lon="-0.285377">
        <ele>1826.6</ele>
        <time>2020-06-27T08:49:06Z</time>
      </trkpt>
      <trkpt lat="42.947881" lon="-0.285416">
        <ele>1830.1</ele>
        <time>2020-06-27T08:49:23Z</time>
      </trkpt>
      <trkpt lat="42.947834" lon="-0.285359">
        <ele>1833.8</ele>
        <time>2020-06-27T08:49:44Z</time>
      </trkpt>
      <trkpt lat="42.947725" lon="-0.285352">
        <ele>1836.3</ele>
        <time>2020-06-27T08:49:59Z</time>
      </trkpt>
      <trkpt lat="42.947659" lon="-0.285379">
        <ele>1839.9</ele>
        <time>2020-06-27T08:50:15Z</time>
      </trkpt>
      <trkpt lat="42.947574" lon="-0.285423">
        <ele>1845.3</ele>
        <time>2020-06-27T08:50:35Z</time>
      </trkpt>
      <trkpt lat="42.947530" lon="-0.285514">
        <ele>1848.8</ele>
        <time>2020-06-27T08:50:49Z</time>
      </trkpt>
      <trkpt lat="42.947445" lon="-0.285561">
        <ele>1851.6</ele>
        <time>2020-06-27T08:51:00Z</time>
      </trkpt>
      <trkpt lat="42.947369" lon="-0.285500">
        <ele>1855.1</ele>
        <time>2020-06-27T08:51:12Z</time>
      </trkpt>
      <trkpt lat="42.947289" lon="-0.285437">
        <ele>1859.6</ele>
        <time>2020-06-27T08:51:26Z</time>
      </trkpt>
      <trkpt lat="42.947206" lon="-0.285340">
        <ele>1862.3</ele>
        <time>2020-06-27T08:51:40Z</time>
      </trkpt>
      <trkpt lat="42.947150" lon="-0.285274">
        <ele>1866.2</ele>
        <time>2020-06-27T08:52:24Z</time>
      </trkpt>
      <trkpt lat="42.947092" lon="-0.285175">
        <ele>1868.6</ele>
        <time>2020-06-27T08:52:37Z</time>
      </trkpt>
      <trkpt lat="42.947042" lon="-0.285137">
        <ele>1873.1</ele>
        <time>2020-06-27T08:52:52Z</time>
      </trkpt>
      <trkpt lat="42.946971" lon="-0.285190">
        <ele>1876.1</ele>
        <time>2020-06-27T08:53:07Z</time>
      </trkpt>
      <trkpt lat="42.946910" lon="-0.285273">
        <ele>1878.9</ele>
        <time>2020-06-27T08:53:21Z</time>
      </trkpt>
      <trkpt lat="42.946847" lon="-0.285368">
        <ele>1883.9</ele>
        <time>2020-06-27T08:53:35Z</time>
      </trkpt>
      <trkpt lat="42.946772" lon="-0.285446">
        <ele>1888.5</ele>
        <time>2020-06-27T08:53:53Z</time>
      </trkpt>
      <trkpt lat="42.946734" lon="-0.285518">
        <ele>1891.9</ele>
        <time>2020-06-27T08:54:10Z</time>
      </trkpt>
      <trkpt lat="42.946684" lon="-0.285579">
        <ele>1895.9</ele>
        <time>2020-06-27T08:54:26Z</time>
      </trkpt>
      <trkpt lat="42.946636" lon="-0.285678">
        <ele>1899.6</ele>
        <time>2020-06-27T08:54:44Z</time>
      </trkpt>
      <trkpt lat="42.946602" lon="-0.285784">
        <ele>1903.8</ele>
        <time>2020-06-27T08:54:59Z</time>
      </trkpt>
      <trkpt lat="42.946544" lon="-0.285857">
        <ele>1906.8</ele>
        <time>2020-06-27T08:55:13Z</time>
      </trkpt>
      <trkpt lat="42.946463" lon="-0.285754">
        <ele>1910.4</ele>
        <time>2020-06-27T08:55:28Z</time>
      </trkpt>
      <trkpt lat="42.946429" lon="-0.285730">
        <ele>1914.0</ele>
        <time>2020-06-27T08:55:44Z</time>
      </trkpt>
      <trkpt lat="42.946359" lon="-0.285802">
        <ele>1918.4</ele>
        <time>2020-06-27T08:56:01Z</time>
      </trkpt>
      <trkpt lat="42.946308" lon="-0.285882">
        <ele>1921.9</ele>
        <time>2020-06-27T08:56:32Z</time>
      </trkpt>
      <trkpt lat="42.946241" lon="-0.285966">
        <ele>1924.7</ele>
        <time>2020-06-27T08:56:45Z</time>
      </trkpt>
      <trkpt lat="42.946153" lon="-0.286023">
        <ele>1928.3</ele>
        <time>2020-06-27T08:56:58Z</time>
      </trkpt>
      <trkpt lat="42.946071" lon="-0.286089">
        <ele>1931.1</ele>
        <time>2020-06-27T08:57:12Z</time>
      </trkpt>
      <trkpt lat="42.945989" lon="-0.286146">
        <ele>1932.9</ele>
        <time>2020-06-27T08:57:27Z</time>
      </trkpt>
      <trkpt lat="42.945925" lon="-0.286256">
        <ele>1933.9</ele>
        <time>2020-06-27T08:57:52Z</time>
      </trkpt>
      <trkpt lat="42.945848" lon="-0.286335">
        <ele>1934.7</ele>
        <time>2020-06-27T08:58:03Z</time>
      </trkpt>
      <trkpt lat="42.945778" lon="-0.286425">
        <ele>1935.7</ele>
        <time>2020-06-27T08:58:13Z</time>
      </trkpt>
      <trkpt lat="42.945725" lon="-0.286518">
        <ele>1936.5</ele>
        <time>2020-06-27T08:58:43Z</time>
      </trkpt>
      <trkpt lat="42.945651" lon="-0.286608">
        <ele>1937.4</ele>
        <time>2020-06-27T08:58:54Z</time>
      </trkpt>
      <trkpt lat="42.945606" lon="-0.286727">
        <ele>1939.4</ele>
        <time>2020-06-27T08:59:06Z</time>
      </trkpt>
      <trkpt lat="42.945566" lon="-0.286835">
        <ele>1941.3</ele>
        <time>2020-06-27T08:59:19Z</time>
      </trkpt>
      <trkpt lat="42.945518" lon="-0.286929">
        <ele>1943.8</ele>
        <time>2020-06-27T08:59:29Z</time>
      </trkpt>
      <trkpt lat="42.945514" lon="-0.287034">
        <ele>1946.2</ele>
        <time>2020-06-27T08:59:38Z</time>
      </trkpt>
      <trkpt lat="42.945551" lon="-0.287131">
        <ele>1947.1</ele>
        <time>2020-06-27T08:59:45Z</time>
      </trkpt>
      <trkpt lat="42.945574" lon="-0.287266">
        <ele>1948.9</ele>
        <time>2020-06-27T08:59:56Z</time>
      </trkpt>
      <trkpt lat="42.945597" lon="-0.287392">
        <ele>1948.9</ele>
        <time>2020-06-27T09:00:07Z</time>
      </trkpt>
      <trkpt lat="42.945570" lon="-0.287527">
        <ele>1948.9</ele>
        <time>2020-06-27T09:00:16Z</time>
      </trkpt>
      <trkpt lat="42.945565" lon="-0.287663">
        <ele>1950.6</ele>
        <time>2020-06-27T09:00:26Z</time>
      </trkpt>
      <trkpt lat="42.945552" lon="-0.287782">
        <ele>1953.9</ele>
        <time>2020-06-27T09:00:39Z</time>
      </trkpt>
      <trkpt lat="42.945573" lon="-0.287911">
        <ele>1956.7</ele>
        <time>2020-06-27T09:00:49Z</time>
      </trkpt>
      <trkpt lat="42.945583" lon="-0.288035">
        <ele>1959.5</ele>
        <time>2020-06-27T09:00:59Z</time>
      </trkpt>
      <trkpt lat="42.945528" lon="-0.288132">
        <ele>1962.1</ele>
        <time>2020-06-27T09:01:10Z</time>
      </trkpt>
      <trkpt lat="42.945507" lon="-0.288258">
        <ele>1963.0</ele>
        <time>2020-06-27T09:01:20Z</time>
      </trkpt>
      <trkpt lat="42.945496" lon="-0.288384">
        <ele>1965.9</ele>
        <time>2020-06-27T09:01:30Z</time>
      </trkpt>
      <trkpt lat="42.945449" lon="-0.288500">
        <ele>1967.9</ele>
        <time>2020-06-27T09:01:41Z</time>
      </trkpt>
      <trkpt lat="42.945403" lon="-0.288619">
        <ele>1969.8</ele>
        <time>2020-06-27T09:01:51Z</time>
      </trkpt>
      <trkpt lat="42.945364" lon="-0.288734">
        <ele>1969.9</ele>
        <time>2020-06-27T09:02:00Z</time>
      </trkpt>
      <trkpt lat="42.945295" lon="-0.288839">
        <ele>1969.9</ele>
        <time>2020-06-27T09:02:09Z</time>
      </trkpt>
      <trkpt lat="42.945217" lon="-0.288919">
        <ele>1970.0</ele>
        <time>2020-06-27T09:02:18Z</time>
      </trkpt>
      <trkpt lat="42.945159" lon="-0.289014">
        <ele>1970.1</ele>
        <time>2020-06-27T09:02:27Z</time>
      </trkpt>
      <trkpt lat="42.945104" lon="-0.289119">
        <ele>1970.2</ele>
        <time>2020-06-27T09:02:42Z</time>
      </trkpt>
      <trkpt lat="42.945026" lon="-0.289191">
        <ele>1970.2</ele>
        <time>2020-06-27T09:02:52Z</time>
      </trkpt>
      <trkpt lat="42.944958" lon="-0.289284">
        <ele>1970.3</ele>
        <time>2020-06-27T09:03:02Z</time>
      </trkpt>
      <trkpt lat="42.944913" lon="-0.289365">
        <ele>1971.9</ele>
        <time>2020-06-27T09:04:12Z</time>
      </trkpt>
      <trkpt lat="42.944869" lon="-0.289475">
        <ele>1973.0</ele>
        <time>2020-06-27T09:04:21Z</time>
      </trkpt>
      <trkpt lat="42.944824" lon="-0.289564">
        <ele>1974.9</ele>
        <time>2020-06-27T09:04:30Z</time>
      </trkpt>
      <trkpt lat="42.944791" lon="-0.289657">
        <ele>1975.3</ele>
        <time>2020-06-27T09:05:44Z</time>
      </trkpt>
      <trkpt lat="42.944768" lon="-0.289698">
        <ele>1975.5</ele>
        <time>2020-06-27T09:06:27Z</time>
      </trkpt>
      <trkpt lat="42.944728" lon="-0.289693">
        <ele>1975.9</ele>
        <time>2020-06-27T09:07:47Z</time>
      </trkpt>
      <trkpt lat="42.944630" lon="-0.289633">
        <ele>1976.0</ele>
        <time>2020-06-27T09:08:14Z</time>
      </trkpt>
      <trkpt lat="42.944530" lon="-0.289614">
        <ele>1976.0</ele>
        <time>2020-06-27T09:08:23Z</time>
      </trkpt>
      <trkpt lat="42.944441" lon="-0.289652">
        <ele>1976.1</ele>
        <time>2020-06-27T09:08:33Z</time>
      </trkpt>
      <trkpt lat="42.944366" lon="-0.289713">
        <ele>1976.1</ele>
        <time>2020-06-27T09:08:44Z</time>
      </trkpt>
      <trkpt lat="42.944333" lon="-0.289740">
        <ele>1977.0</ele>
        <time>2020-06-27T09:09:07Z</time>
      </trkpt>
      <trkpt lat="42.944245" lon="-0.289753">
        <ele>1977.0</ele>
        <time>2020-06-27T09:09:17Z</time>
      </trkpt>
      <trkpt lat="42.944143" lon="-0.289758">
        <ele>1978.9</ele>
        <time>2020-06-27T09:09:26Z</time>
      </trkpt>
      <trkpt lat="42.944046" lon="-0.289748">
        <ele>1979.7</ele>
        <time>2020-06-27T09:09:35Z</time>
      </trkpt>
      <trkpt lat="42.943946" lon="-0.289726">
        <ele>1980.5</ele>
        <time>2020-06-27T09:09:43Z</time>
      </trkpt>
      <trkpt lat="42.943860" lon="-0.289673">
        <ele>1980.5</ele>
        <time>2020-06-27T09:09:50Z</time>
      </trkpt>
      <trkpt lat="42.943769" lon="-0.289629">
        <ele>1981.3</ele>
        <time>2020-06-27T09:09:58Z</time>
      </trkpt>
      <trkpt lat="42.943674" lon="-0.289589">
        <ele>1983.0</ele>
        <time>2020-06-27T09:10:06Z</time>
      </trkpt>
      <trkpt lat="42.943584" lon="-0.289552">
        <ele>1985.9</ele>
        <time>2020-06-27T09:10:14Z</time>
      </trkpt>
      <trkpt lat="42.943492" lon="-0.289550">
        <ele>1986.6</ele>
        <time>2020-06-27T09:10:23Z</time>
      </trkpt>
      <trkpt lat="42.943402" lon="-0.289528">
        <ele>1988.8</ele>
        <time>2020-06-27T09:10:34Z</time>
      </trkpt>
      <trkpt lat="42.943316" lon="-0.289502">
        <ele>1991.5</ele>
        <time>2020-06-27T09:10:42Z</time>
      </trkpt>
      <trkpt lat="42.943223" lon="-0.289487">
        <ele>1992.5</ele>
        <time>2020-06-27T09:10:50Z</time>
      </trkpt>
      <trkpt lat="42.943132" lon="-0.289436">
        <ele>1993.4</ele>
        <time>2020-06-27T09:10:58Z</time>
      </trkpt>
      <trkpt lat="42.943047" lon="-0.289393">
        <ele>1994.9</ele>
        <time>2020-06-27T09:11:07Z</time>
      </trkpt>
      <trkpt lat="42.942966" lon="-0.289343">
        <ele>1996.5</ele>
        <time>2020-06-27T09:11:14Z</time>
      </trkpt>
      <trkpt lat="42.942881" lon="-0.289277">
        <ele>1999.5</ele>
        <time>2020-06-27T09:11:22Z</time>
      </trkpt>
      <trkpt lat="42.942792" lon="-0.289201">
        <ele>2002.2</ele>
        <time>2020-06-27T09:11:30Z</time>
      </trkpt>
      <trkpt lat="42.942680" lon="-0.289155">
        <ele>2004.8</ele>
        <time>2020-06-27T09:11:39Z</time>
      </trkpt>
      <trkpt lat="42.942579" lon="-0.289106">
        <ele>2009.4</ele>
        <time>2020-06-27T09:11:51Z</time>
      </trkpt>
      <trkpt lat="42.942492" lon="-0.289011">
        <ele>2012.5</ele>
        <time>2020-06-27T09:12:03Z</time>
      </trkpt>
      <trkpt lat="42.942421" lon="-0.288911">
        <ele>2017.5</ele>
        <time>2020-06-27T09:12:19Z</time>
      </trkpt>
      <trkpt lat="42.942335" lon="-0.288876">
        <ele>2021.2</ele>
        <time>2020-06-27T09:12:33Z</time>
      </trkpt>
      <trkpt lat="42.942234" lon="-0.288847">
        <ele>2024.7</ele>
        <time>2020-06-27T09:12:46Z</time>
      </trkpt>
      <trkpt lat="42.942135" lon="-0.288789">
        <ele>2030.0</ele>
        <time>2020-06-27T09:13:00Z</time>
      </trkpt>
      <trkpt lat="42.942078" lon="-0.288763">
        <ele>2034.6</ele>
        <time>2020-06-27T09:13:14Z</time>
      </trkpt>
      <trkpt lat="42.941997" lon="-0.288683">
        <ele>2037.6</ele>
        <time>2020-06-27T09:13:27Z</time>
      </trkpt>
      <trkpt lat="42.941899" lon="-0.288684">
        <ele>2040.6</ele>
        <time>2020-06-27T09:13:57Z</time>
      </trkpt>
      <trkpt lat="42.941798" lon="-0.288651">
        <ele>2042.2</ele>
        <time>2020-06-27T09:14:06Z</time>
      </trkpt>
      <trkpt lat="42.941706" lon="-0.288599">
        <ele>2044.6</ele>
        <time>2020-06-27T09:14:15Z</time>
      </trkpt>
      <trkpt lat="42.941605" lon="-0.288563">
        <ele>2048.1</ele>
        <time>2020-06-27T09:14:24Z</time>
      </trkpt>
      <trkpt lat="42.941509" lon="-0.288530">
        <ele>2051.8</ele>
        <time>2020-06-27T09:14:35Z</time>
      </trkpt>
      <trkpt lat="42.941422" lon="-0.288482">
        <ele>2054.4</ele>
        <time>2020-06-27T09:14:44Z</time>
      </trkpt>
      <trkpt lat="42.941335" lon="-0.288438">
        <ele>2057.0</ele>
        <time>2020-06-27T09:14:53Z</time>
      </trkpt>
      <trkpt lat="42.941256" lon="-0.288367">
        <ele>2060.7</ele>
        <time>2020-06-27T09:15:04Z</time>
      </trkpt>
      <trkpt lat="42.941189" lon="-0.288271">
        <ele>2063.7</ele>
        <time>2020-06-27T09:15:15Z</time>
      </trkpt>
      <trkpt lat="42.941133" lon="-0.288167">
        <ele>2065.4</ele>
        <time>2020-06-27T09:15:25Z</time>
      </trkpt>
      <trkpt lat="42.941053" lon="-0.288122">
        <ele>2066.1</ele>
        <time>2020-06-27T09:15:36Z</time>
      </trkpt>
      <trkpt lat="42.940944" lon="-0.288101">
        <ele>2069.3</ele>
        <time>2020-06-27T09:15:47Z</time>
      </trkpt>
      <trkpt lat="42.940859" lon="-0.288115">
        <ele>2071.2</ele>
        <time>2020-06-27T09:15:57Z</time>
      </trkpt>
      <trkpt lat="42.940763" lon="-0.288115">
        <ele>2073.2</ele>
        <time>2020-06-27T09:16:09Z</time>
      </trkpt>
      <trkpt lat="42.940687" lon="-0.288112">
        <ele>2076.1</ele>
        <time>2020-06-27T09:16:30Z</time>
      </trkpt>
      <trkpt lat="42.940590" lon="-0.288127">
        <ele>2079.9</ele>
        <time>2020-06-27T09:16:42Z</time>
      </trkpt>
      <trkpt lat="42.940520" lon="-0.288089">
        <ele>2085.1</ele>
        <time>2020-06-27T09:17:01Z</time>
      </trkpt>
      <trkpt lat="42.940451" lon="-0.288067">
        <ele>2088.6</ele>
        <time>2020-06-27T09:17:15Z</time>
      </trkpt>
      <trkpt lat="42.940370" lon="-0.288037">
        <ele>2093.0</ele>
        <time>2020-06-27T09:17:36Z</time>
      </trkpt>
      <trkpt lat="42.940284" lon="-0.288012">
        <ele>2095.9</ele>
        <time>2020-06-27T09:17:51Z</time>
      </trkpt>
      <trkpt lat="42.940184" lon="-0.288003">
        <ele>2098.6</ele>
        <time>2020-06-27T09:18:04Z</time>
      </trkpt>
      <trkpt lat="42.940100" lon="-0.287970">
        <ele>2102.0</ele>
        <time>2020-06-27T09:18:20Z</time>
      </trkpt>
      <trkpt lat="42.940079" lon="-0.287861">
        <ele>2102.1</ele>
        <time>2020-06-27T09:18:50Z</time>
      </trkpt>
      <trkpt lat="42.939998" lon="-0.287776">
        <ele>2102.1</ele>
        <time>2020-06-27T09:19:01Z</time>
      </trkpt>
      <trkpt lat="42.939959" lon="-0.287658">
        <ele>2102.1</ele>
        <time>2020-06-27T09:19:11Z</time>
      </trkpt>
      <trkpt lat="42.939903" lon="-0.287555">
        <ele>2102.9</ele>
        <time>2020-06-27T09:19:22Z</time>
      </trkpt>
      <trkpt lat="42.939814" lon="-0.287513">
        <ele>2104.9</ele>
        <time>2020-06-27T09:19:32Z</time>
      </trkpt>
      <trkpt lat="42.939715" lon="-0.287545">
        <ele>2106.5</ele>
        <time>2020-06-27T09:19:41Z</time>
      </trkpt>
      <trkpt lat="42.939631" lon="-0.287484">
        <ele>2107.5</ele>
        <time>2020-06-27T09:19:51Z</time>
      </trkpt>
      <trkpt lat="42.939539" lon="-0.287461">
        <ele>2108.6</ele>
        <time>2020-06-27T09:20:00Z</time>
      </trkpt>
      <trkpt lat="42.939436" lon="-0.287463">
        <ele>2111.4</ele>
        <time>2020-06-27T09:20:09Z</time>
      </trkpt>
      <trkpt lat="42.939345" lon="-0.287478">
        <ele>2113.1</ele>
        <time>2020-06-27T09:20:19Z</time>
      </trkpt>
      <trkpt lat="42.939251" lon="-0.287516">
        <ele>2117.1</ele>
        <time>2020-06-27T09:21:57Z</time>
      </trkpt>
      <trkpt lat="42.939156" lon="-0.287518">
        <ele>2119.8</ele>
        <time>2020-06-27T09:22:07Z</time>
      </trkpt>
      <trkpt lat="42.939064" lon="-0.287572">
        <ele>2120.6</ele>
        <time>2020-06-27T09:22:17Z</time>
      </trkpt>
      <trkpt lat="42.938978" lon="-0.287627">
        <ele>2122.4</ele>
        <time>2020-06-27T09:22:27Z</time>
      </trkpt>
      <trkpt lat="42.938886" lon="-0.287671">
        <ele>2126.3</ele>
        <time>2020-06-27T09:22:36Z</time>
      </trkpt>
      <trkpt lat="42.938788" lon="-0.287692">
        <ele>2128.3</ele>
        <time>2020-06-27T09:22:41Z</time>
      </trkpt>
      <trkpt lat="42.938680" lon="-0.287663">
        <ele>2131.1</ele>
        <time>2020-06-27T09:22:49Z</time>
      </trkpt>
      <trkpt lat="42.938578" lon="-0.287587">
        <ele>2132.9</ele>
        <time>2020-06-27T09:23:00Z</time>
      </trkpt>
      <trkpt lat="42.938480" lon="-0.287542">
        <ele>2136.2</ele>
        <time>2020-06-27T09:23:10Z</time>
      </trkpt>
      <trkpt lat="42.938390" lon="-0.287513">
        <ele>2138.6</ele>
        <time>2020-06-27T09:23:19Z</time>
      </trkpt>
      <trkpt lat="42.938295" lon="-0.287517">
        <ele>2142.3</ele>
        <time>2020-06-27T09:23:30Z</time>
      </trkpt>
      <trkpt lat="42.938203" lon="-0.287517">
        <ele>2146.4</ele>
        <time>2020-06-27T09:23:40Z</time>
      </trkpt>
      <trkpt lat="42.938104" lon="-0.287448">
        <ele>2149.4</ele>
        <time>2020-06-27T09:23:49Z</time>
      </trkpt>
      <trkpt lat="42.938028" lon="-0.287382">
        <ele>2153.1</ele>
        <time>2020-06-27T09:23:58Z</time>
      </trkpt>
      <trkpt lat="42.937929" lon="-0.287380">
        <ele>2157.3</ele>
        <time>2020-06-27T09:24:06Z</time>
      </trkpt>
      <trkpt lat="42.937828" lon="-0.287382">
        <ele>2160.2</ele>
        <time>2020-06-27T09:24:12Z</time>
      </trkpt>
      <trkpt lat="42.937722" lon="-0.287339">
        <ele>2164.7</ele>
        <time>2020-06-27T09:24:19Z</time>
      </trkpt>
      <trkpt lat="42.937637" lon="-0.287392">
        <ele>2167.7</ele>
        <time>2020-06-27T09:24:26Z</time>
      </trkpt>
      <trkpt lat="42.937548" lon="-0.287463">
        <ele>2170.6</ele>
        <time>2020-06-27T09:24:34Z</time>
      </trkpt>
      <trkpt lat="42.937475" lon="-0.287528">
        <ele>2173.9</ele>
        <time>2020-06-27T09:24:41Z</time>
      </trkpt>
      <trkpt lat="42.937390" lon="-0.287580">
        <ele>2178.0</ele>
        <time>2020-06-27T09:24:48Z</time>
      </trkpt>
      <trkpt lat="42.937289" lon="-0.287588">
        <ele>2181.7</ele>
        <time>2020-06-27T09:24:54Z</time>
      </trkpt>
      <trkpt lat="42.937191" lon="-0.287614">
        <ele>2184.7</ele>
        <time>2020-06-27T09:25:00Z</time>
      </trkpt>
      <trkpt lat="42.937088" lon="-0.287650">
        <ele>2187.7</ele>
        <time>2020-06-27T09:25:07Z</time>
      </trkpt>
      <trkpt lat="42.936990" lon="-0.287689">
        <ele>2191.3</ele>
        <time>2020-06-27T09:25:15Z</time>
      </trkpt>
      <trkpt lat="42.936907" lon="-0.287747">
        <ele>2194.1</ele>
        <time>2020-06-27T09:25:22Z</time>
      </trkpt>
      <trkpt lat="42.936812" lon="-0.287774">
        <ele>2196.3</ele>
        <time>2020-06-27T09:25:28Z</time>
      </trkpt>
      <trkpt lat="42.936713" lon="-0.287831">
        <ele>2198.2</ele>
        <time>2020-06-27T09:25:35Z</time>
      </trkpt>
      <trkpt lat="42.936622" lon="-0.287885">
        <ele>2200.2</ele>
        <time>2020-06-27T09:25:42Z</time>
      </trkpt>
      <trkpt lat="42.936532" lon="-0.287938">
        <ele>2201.0</ele>
        <time>2020-06-27T09:25:52Z</time>
      </trkpt>
      <trkpt lat="42.936448" lon="-0.287980">
        <ele>2201.9</ele>
        <time>2020-06-27T09:26:00Z</time>
      </trkpt>
      <trkpt lat="42.936366" lon="-0.288049">
        <ele>2202.8</ele>
        <time>2020-06-27T09:26:08Z</time>
      </trkpt>
      <trkpt lat="42.936280" lon="-0.288105">
        <ele>2204.6</ele>
        <time>2020-06-27T09:26:18Z</time>
      </trkpt>
      <trkpt lat="42.936188" lon="-0.288190">
        <ele>2207.1</ele>
        <time>2020-06-27T09:26:28Z</time>
      </trkpt>
      <trkpt lat="42.936121" lon="-0.288278">
        <ele>2208.1</ele>
        <time>2020-06-27T09:26:36Z</time>
      </trkpt>
      <trkpt lat="42.936058" lon="-0.288370">
        <ele>2209.9</ele>
        <time>2020-06-27T09:26:45Z</time>
      </trkpt>
      <trkpt lat="42.935998" lon="-0.288434">
        <ele>2211.0</ele>
        <time>2020-06-27T09:27:47Z</time>
      </trkpt>
      <trkpt lat="42.935957" lon="-0.288461">
        <ele>2213.3</ele>
        <time>2020-06-27T09:32:27Z</time>
      </trkpt>
      <trkpt lat="42.935910" lon="-0.288532">
        <ele>2215.1</ele>
        <time>2020-06-27T09:33:05Z</time>
      </trkpt>
      <trkpt lat="42.935850" lon="-0.288619">
        <ele>2215.9</ele>
        <time>2020-06-27T09:33:17Z</time>
      </trkpt>
      <trkpt lat="42.935782" lon="-0.288700">
        <ele>2217.7</ele>
        <time>2020-06-27T09:33:26Z</time>
      </trkpt>
      <trkpt lat="42.935709" lon="-0.288778">
        <ele>2219.5</ele>
        <time>2020-06-27T09:33:37Z</time>
      </trkpt>
      <trkpt lat="42.935622" lon="-0.288841">
        <ele>2221.3</ele>
        <time>2020-06-27T09:33:47Z</time>
      </trkpt>
      <trkpt lat="42.935532" lon="-0.288910">
        <ele>2223.0</ele>
        <time>2020-06-27T09:34:23Z</time>
      </trkpt>
      <trkpt lat="42.935471" lon="-0.288999">
        <ele>2224.7</ele>
        <time>2020-06-27T09:34:33Z</time>
      </trkpt>
      <trkpt lat="42.935396" lon="-0.289059">
        <ele>2225.5</ele>
        <time>2020-06-27T09:34:44Z</time>
      </trkpt>
      <trkpt lat="42.935322" lon="-0.289124">
        <ele>2226.4</ele>
        <time>2020-06-27T09:34:59Z</time>
      </trkpt>
      <trkpt lat="42.935273" lon="-0.289250">
        <ele>2229.2</ele>
        <time>2020-06-27T09:35:11Z</time>
      </trkpt>
      <trkpt lat="42.935220" lon="-0.289326">
        <ele>2234.5</ele>
        <time>2020-06-27T09:35:36Z</time>
      </trkpt>
      <trkpt lat="42.935160" lon="-0.289392">
        <ele>2237.3</ele>
        <time>2020-06-27T09:35:58Z</time>
      </trkpt>
      <trkpt lat="42.935121" lon="-0.289468">
        <ele>2241.1</ele>
        <time>2020-06-27T09:36:39Z</time>
      </trkpt>
      <trkpt lat="42.935062" lon="-0.289561">
        <ele>2245.6</ele>
        <time>2020-06-27T09:36:47Z</time>
      </trkpt>
      <trkpt lat="42.935016" lon="-0.289670">
        <ele>2250.3</ele>
        <time>2020-06-27T09:36:57Z</time>
      </trkpt>
      <trkpt lat="42.934958" lon="-0.289760">
        <ele>2252.9</ele>
        <time>2020-06-27T09:37:06Z</time>
      </trkpt>
      <trkpt lat="42.934871" lon="-0.289821">
        <ele>2257.2</ele>
        <time>2020-06-27T09:37:13Z</time>
      </trkpt>
      <trkpt lat="42.934771" lon="-0.289854">
        <ele>2260.6</ele>
        <time>2020-06-27T09:37:20Z</time>
      </trkpt>
      <trkpt lat="42.934679" lon="-0.289903">
        <ele>2266.1</ele>
        <time>2020-06-27T09:37:28Z</time>
      </trkpt>
      <trkpt lat="42.934598" lon="-0.289941">
        <ele>2269.9</ele>
        <time>2020-06-27T09:37:35Z</time>
      </trkpt>
      <trkpt lat="42.934510" lon="-0.289977">
        <ele>2273.8</ele>
        <time>2020-06-27T09:37:42Z</time>
      </trkpt>
      <trkpt lat="42.934428" lon="-0.290006">
        <ele>2276.7</ele>
        <time>2020-06-27T09:38:04Z</time>
      </trkpt>
      <trkpt lat="42.934344" lon="-0.290049">
        <ele>2280.4</ele>
        <time>2020-06-27T09:38:15Z</time>
      </trkpt>
      <trkpt lat="42.934254" lon="-0.290074">
        <ele>2283.9</ele>
        <time>2020-06-27T09:38:25Z</time>
      </trkpt>
      <trkpt lat="42.934170" lon="-0.290143">
        <ele>2286.8</ele>
        <time>2020-06-27T09:38:34Z</time>
      </trkpt>
      <trkpt lat="42.934118" lon="-0.290253">
        <ele>2289.6</ele>
        <time>2020-06-27T09:38:44Z</time>
      </trkpt>
      <trkpt lat="42.934062" lon="-0.290365">
        <ele>2291.7</ele>
        <time>2020-06-27T09:38:54Z</time>
      </trkpt>
      <trkpt lat="42.934004" lon="-0.290467">
        <ele>2293.7</ele>
        <time>2020-06-27T09:39:06Z</time>
      </trkpt>
      <trkpt lat="42.933948" lon="-0.290583">
        <ele>2295.4</ele>
        <time>2020-06-27T09:39:19Z</time>
      </trkpt>
      <trkpt lat="42.933902" lon="-0.290589">
        <ele>2298.4</ele>
        <time>2020-06-27T09:41:29Z</time>
      </trkpt>
      <trkpt lat="42.933818" lon="-0.290652">
        <ele>2300.4</ele>
        <time>2020-06-27T09:41:39Z</time>
      </trkpt>
      <trkpt lat="42.933746" lon="-0.290721">
        <ele>2303.1</ele>
        <time>2020-06-27T09:41:49Z</time>
      </trkpt>
      <trkpt lat="42.933687" lon="-0.290810">
        <ele>2306.6</ele>
        <time>2020-06-27T09:42:00Z</time>
      </trkpt>
      <trkpt lat="42.933651" lon="-0.290920">
        <ele>2308.4</ele>
        <time>2020-06-27T09:42:14Z</time>
      </trkpt>
      <trkpt lat="42.933671" lon="-0.291062">
        <ele>2310.9</ele>
        <time>2020-06-27T09:42:29Z</time>
      </trkpt>
      <trkpt lat="42.933630" lon="-0.291118">
        <ele>2317.0</ele>
        <time>2020-06-27T09:42:46Z</time>
      </trkpt>
      <trkpt lat="42.933567" lon="-0.291157">
        <ele>2320.9</ele>
        <time>2020-06-27T09:43:01Z</time>
      </trkpt>
      <trkpt lat="42.933508" lon="-0.291228">
        <ele>2322.5</ele>
        <time>2020-06-27T09:43:12Z</time>
      </trkpt>
      <trkpt lat="42.933466" lon="-0.291336">
        <ele>2325.3</ele>
        <time>2020-06-27T09:43:24Z</time>
      </trkpt>
      <trkpt lat="42.933401" lon="-0.291420">
        <ele>2328.8</ele>
        <time>2020-06-27T09:43:53Z</time>
      </trkpt>
      <trkpt lat="42.933328" lon="-0.291422">
        <ele>2333.2</ele>
        <time>2020-06-27T09:44:17Z</time>
      </trkpt>
      <trkpt lat="42.933249" lon="-0.291478">
        <ele>2335.9</ele>
        <time>2020-06-27T09:44:29Z</time>
      </trkpt>
      <trkpt lat="42.933202" lon="-0.291566">
        <ele>2338.7</ele>
        <time>2020-06-27T09:44:42Z</time>
      </trkpt>
      <trkpt lat="42.933114" lon="-0.291575">
        <ele>2342.4</ele>
        <time>2020-06-27T09:44:53Z</time>
      </trkpt>
      <trkpt lat="42.933029" lon="-0.291615">
        <ele>2346.1</ele>
        <time>2020-06-27T09:45:04Z</time>
      </trkpt>
      <trkpt lat="42.932973" lon="-0.291722">
        <ele>2348.5</ele>
        <time>2020-06-27T09:45:16Z</time>
      </trkpt>
      <trkpt lat="42.932924" lon="-0.291840">
        <ele>2351.1</ele>
        <time>2020-06-27T09:45:28Z</time>
      </trkpt>
      <trkpt lat="42.932872" lon="-0.291899">
        <ele>2351.2</ele>
        <time>2020-06-27T09:46:24Z</time>
      </trkpt>
      <trkpt lat="42.932824" lon="-0.291945">
        <ele>2356.3</ele>
        <time>2020-06-27T09:46:46Z</time>
      </trkpt>
      <trkpt lat="42.932729" lon="-0.291915">
        <ele>2360.5</ele>
        <time>2020-06-27T09:47:02Z</time>
      </trkpt>
      <trkpt lat="42.932686" lon="-0.291992">
        <ele>2366.2</ele>
        <time>2020-06-27T09:47:19Z</time>
      </trkpt>
      <trkpt lat="42.932668" lon="-0.292097">
        <ele>2369.4</ele>
        <time>2020-06-27T09:47:34Z</time>
      </trkpt>
      <trkpt lat="42.932605" lon="-0.292184">
        <ele>2371.5</ele>
        <time>2020-06-27T09:48:07Z</time>
      </trkpt>
      <trkpt lat="42.932581" lon="-0.292297">
        <ele>2373.8</ele>
        <time>2020-06-27T09:48:27Z</time>
      </trkpt>
      <trkpt lat="42.932517" lon="-0.292411">
        <ele>2378.1</ele>
        <time>2020-06-27T09:48:36Z</time>
      </trkpt>
      <trkpt lat="42.932461" lon="-0.292540">
        <ele>2382.1</ele>
        <time>2020-06-27T09:48:45Z</time>
      </trkpt>
      <trkpt lat="42.932442" lon="-0.292680">
        <ele>2387.3</ele>
        <time>2020-06-27T09:48:51Z</time>
      </trkpt>
      <trkpt lat="42.932503" lon="-0.292785">
        <ele>2391.3</ele>
        <time>2020-06-27T09:49:03Z</time>
      </trkpt>
      <trkpt lat="42.932458" lon="-0.292890">
        <ele>2396.9</ele>
        <time>2020-06-27T09:49:17Z</time>
      </trkpt>
      <trkpt lat="42.932394" lon="-0.292969">
        <ele>2400.3</ele>
        <time>2020-06-27T09:49:30Z</time>
      </trkpt>
      <trkpt lat="42.932368" lon="-0.293075">
        <ele>2405.6</ele>
        <time>2020-06-27T09:49:49Z</time>
      </trkpt>
      <trkpt lat="42.932329" lon="-0.293141">
        <ele>2409.2</ele>
        <time>2020-06-27T09:50:10Z</time>
      </trkpt>
      <trkpt lat="42.932311" lon="-0.293231">
        <ele>2412.4</ele>
        <time>2020-06-27T09:50:21Z</time>
      </trkpt>
      <trkpt lat="42.932289" lon="-0.293322">
        <ele>2417.0</ele>
        <time>2020-06-27T09:50:43Z</time>
      </trkpt>
      <trkpt lat="42.932252" lon="-0.293435">
        <ele>2421.1</ele>
        <time>2020-06-27T09:50:53Z</time>
      </trkpt>
      <trkpt lat="42.932230" lon="-0.293566">
        <ele>2424.4</ele>
        <time>2020-06-27T09:51:02Z</time>
      </trkpt>
      <trkpt lat="42.932216" lon="-0.293685">
        <ele>2426.0</ele>
        <time>2020-06-27T09:51:10Z</time>
      </trkpt>
      <trkpt lat="42.932210" lon="-0.293812">
        <ele>2427.7</ele>
        <time>2020-06-27T09:51:19Z</time>
      </trkpt>
      <trkpt lat="42.932205" lon="-0.293943">
        <ele>2429.5</ele>
        <time>2020-06-27T09:51:27Z</time>
      </trkpt>
      <trkpt lat="42.932240" lon="-0.294056">
        <ele>2431.8</ele>
        <time>2020-06-27T09:51:40Z</time>
      </trkpt>
      <trkpt lat="42.932256" lon="-0.294171">
        <ele>2434.9</ele>
        <time>2020-06-27T09:51:54Z</time>
      </trkpt>
      <trkpt lat="42.932206" lon="-0.294280">
        <ele>2436.5</ele>
        <time>2020-06-27T09:52:05Z</time>
      </trkpt>
      <trkpt lat="42.932137" lon="-0.294366">
        <ele>2438.6</ele>
        <time>2020-06-27T09:52:13Z</time>
      </trkpt>
      <trkpt lat="42.932129" lon="-0.294476">
        <ele>2440.6</ele>
        <time>2020-06-27T09:52:21Z</time>
      </trkpt>
      <trkpt lat="42.932105" lon="-0.294638">
        <ele>2448.4</ele>
        <time>2020-06-27T09:52:49Z</time>
      </trkpt>
      <trkpt lat="42.932036" lon="-0.294725">
        <ele>2450.2</ele>
        <time>2020-06-27T09:53:01Z</time>
      </trkpt>
      <trkpt lat="42.931998" lon="-0.294850">
        <ele>2452.1</ele>
        <time>2020-06-27T09:53:10Z</time>
      </trkpt>
      <trkpt lat="42.931956" lon="-0.294963">
        <ele>2455.1</ele>
        <time>2020-06-27T09:53:16Z</time>
      </trkpt>
      <trkpt lat="42.931947" lon="-0.295114">
        <ele>2460.3</ele>
        <time>2020-06-27T09:53:27Z</time>
      </trkpt>
      <trkpt lat="42.931964" lon="-0.295226">
        <ele>2464.3</ele>
        <time>2020-06-27T09:53:39Z</time>
      </trkpt>
      <trkpt lat="42.931921" lon="-0.295353">
        <ele>2469.0</ele>
        <time>2020-06-27T09:53:55Z</time>
      </trkpt>
      <trkpt lat="42.931868" lon="-0.295430">
        <ele>2473.7</ele>
        <time>2020-06-27T09:54:10Z</time>
      </trkpt>
      <trkpt lat="42.931776" lon="-0.295482">
        <ele>2478.0</ele>
        <time>2020-06-27T09:55:09Z</time>
      </trkpt>
      <trkpt lat="42.931693" lon="-0.295422">
        <ele>2479.0</ele>
        <time>2020-06-27T09:55:25Z</time>
      </trkpt>
      <trkpt lat="42.931610" lon="-0.295396">
        <ele>2481.6</ele>
        <time>2020-06-27T09:55:39Z</time>
      </trkpt>
      <trkpt lat="42.931507" lon="-0.295397">
        <ele>2483.2</ele>
        <time>2020-06-27T09:55:51Z</time>
      </trkpt>
      <trkpt lat="42.931418" lon="-0.295367">
        <ele>2483.3</ele>
        <time>2020-06-27T09:56:03Z</time>
      </trkpt>
      <trkpt lat="42.931376" lon="-0.295352">
        <ele>2483.4</ele>
        <time>2020-06-27T09:56:31Z</time>
      </trkpt>
      <trkpt lat="42.931302" lon="-0.295259">
        <ele>2483.4</ele>
        <time>2020-06-27T09:56:47Z</time>
      </trkpt>
      <trkpt lat="42.931229" lon="-0.295194">
        <ele>2486.6</ele>
        <time>2020-06-27T09:57:07Z</time>
      </trkpt>
      <trkpt lat="42.931150" lon="-0.295213">
        <ele>2491.9</ele>
        <time>2020-06-27T09:57:27Z</time>
      </trkpt>
      <trkpt lat="42.931072" lon="-0.295205">
        <ele>2493.5</ele>
        <time>2020-06-27T09:57:48Z</time>
      </trkpt>
      <trkpt lat="42.930984" lon="-0.295168">
        <ele>2497.0</ele>
        <time>2020-06-27T09:58:08Z</time>
      </trkpt>
      <trkpt lat="42.930919" lon="-0.295087">
        <ele>2497.0</ele>
        <time>2020-06-27T09:58:33Z</time>
      </trkpt>
      <trkpt lat="42.930856" lon="-0.295006">
        <ele>2498.9</ele>
        <time>2020-06-27T09:59:08Z</time>
      </trkpt>
      <trkpt lat="42.930787" lon="-0.294949">
        <ele>2501.8</ele>
        <time>2020-06-27T09:59:35Z</time>
      </trkpt>
      <trkpt lat="42.930706" lon="-0.294879">
        <ele>2504.5</ele>
        <time>2020-06-27T09:59:59Z</time>
      </trkpt>
      <trkpt lat="42.930643" lon="-0.294799">
        <ele>2508.0</ele>
        <time>2020-06-27T10:00:15Z</time>
      </trkpt>
      <trkpt lat="42.930574" lon="-0.294741">
        <ele>2513.0</ele>
        <time>2020-06-27T10:00:30Z</time>
      </trkpt>
      <trkpt lat="42.930511" lon="-0.294674">
        <ele>2515.8</ele>
        <time>2020-06-27T10:00:44Z</time>
      </trkpt>
      <trkpt lat="42.930465" lon="-0.294565">
        <ele>2518.3</ele>
        <time>2020-06-27T10:01:15Z</time>
      </trkpt>
      <trkpt lat="42.930431" lon="-0.294491">
        <ele>2521.1</ele>
        <time>2020-06-27T10:02:58Z</time>
      </trkpt>
      <trkpt lat="42.930369" lon="-0.294422">
        <ele>2523.9</ele>
        <time>2020-06-27T10:03:13Z</time>
      </trkpt>
      <trkpt lat="42.930345" lon="-0.294387">
        <ele>2524.9</ele>
        <time>2020-06-27T10:03:34Z</time>
      </trkpt>
      <trkpt lat="42.930314" lon="-0.294327">
        <ele>2529.6</ele>
        <time>2020-06-27T10:04:03Z</time>
      </trkpt>
      <trkpt lat="42.930242" lon="-0.294290">
        <ele>2533.4</ele>
        <time>2020-06-27T10:04:22Z</time>
      </trkpt>
      <trkpt lat="42.930222" lon="-0.294224">
        <ele>2535.9</ele>
        <time>2020-06-27T10:04:38Z</time>
      </trkpt>
      <trkpt lat="42.930217" lon="-0.294116">
        <ele>2535.9</ele>
        <time>2020-06-27T10:04:50Z</time>
      </trkpt>
      <trkpt lat="42.930189" lon="-0.294029">
        <ele>2538.7</ele>
        <time>2020-06-27T10:05:05Z</time>
      </trkpt>
      <trkpt lat="42.930235" lon="-0.293970">
        <ele>2539.4</ele>
        <time>2020-06-27T10:06:08Z</time>
      </trkpt>
      <trkpt lat="42.930199" lon="-0.293889">
        <ele>2540.9</ele>
        <time>2020-06-27T10:06:42Z</time>
      </trkpt>
      <trkpt lat="42.930200" lon="-0.293775">
        <ele>2544.1</ele>
        <time>2020-06-27T10:07:05Z</time>
      </trkpt>
      <trkpt lat="42.930162" lon="-0.293667">
        <ele>2544.9</ele>
        <time>2020-06-27T10:07:20Z</time>
      </trkpt>
      <trkpt lat="42.930162" lon="-0.293556">
        <ele>2545.8</ele>
        <time>2020-06-27T10:07:36Z</time>
      </trkpt>
      <trkpt lat="42.930212" lon="-0.293437">
        <ele>2550.9</ele>
        <time>2020-06-27T10:08:50Z</time>
      </trkpt>
      <trkpt lat="42.930283" lon="-0.293404">
        <ele>2547.8</ele>
        <time>2020-06-27T10:09:46Z</time>
      </trkpt>
      <trkpt lat="42.930255" lon="-0.293287">
        <ele>2548.6</ele>
        <time>2020-06-27T10:09:59Z</time>
      </trkpt>
      <trkpt lat="42.930233" lon="-0.293176">
        <ele>2550.9</ele>
        <time>2020-06-27T10:10:13Z</time>
      </trkpt>
      <trkpt lat="42.930207" lon="-0.293066">
        <ele>2550.7</ele>
        <time>2020-06-27T10:10:50Z</time>
      </trkpt>
      <trkpt lat="42.930169" lon="-0.292979">
        <ele>2554.3</ele>
        <time>2020-06-27T10:11:05Z</time>
      </trkpt>
      <trkpt lat="42.930126" lon="-0.292888">
        <ele>2557.4</ele>
        <time>2020-06-27T10:11:18Z</time>
      </trkpt>
      <trkpt lat="42.930188" lon="-0.292806">
        <ele>2560.3</ele>
        <time>2020-06-27T10:11:29Z</time>
      </trkpt>
      <trkpt lat="42.930181" lon="-0.292714">
        <ele>2565.0</ele>
        <time>2020-06-27T10:11:45Z</time>
      </trkpt>
      <trkpt lat="42.930130" lon="-0.292664">
        <ele>2568.4</ele>
        <time>2020-06-27T10:12:01Z</time>
      </trkpt>
      <trkpt lat="42.930161" lon="-0.292556">
        <ele>2571.6</ele>
        <time>2020-06-27T10:12:17Z</time>
      </trkpt>
      <trkpt lat="42.930120" lon="-0.292504">
        <ele>2576.3</ele>
        <time>2020-06-27T10:12:38Z</time>
      </trkpt>
      <trkpt lat="42.930057" lon="-0.292433">
        <ele>2578.1</ele>
        <time>2020-06-27T10:12:52Z</time>
      </trkpt>
      <trkpt lat="42.930033" lon="-0.292307">
        <ele>2579.8</ele>
        <time>2020-06-27T10:13:02Z</time>
      </trkpt>
      <trkpt lat="42.929986" lon="-0.292193">
        <ele>2581.6</ele>
        <time>2020-06-27T10:13:13Z</time>
      </trkpt>
      <trkpt lat="42.929932" lon="-0.292081">
        <ele>2583.2</ele>
        <time>2020-06-27T10:13:23Z</time>
      </trkpt>
      <trkpt lat="42.929877" lon="-0.291975">
        <ele>2585.8</ele>
        <time>2020-06-27T10:13:33Z</time>
      </trkpt>
      <trkpt lat="42.929820" lon="-0.291878">
        <ele>2588.8</ele>
        <time>2020-06-27T10:13:43Z</time>
      </trkpt>
      <trkpt lat="42.929773" lon="-0.291770">
        <ele>2590.8</ele>
        <time>2020-06-27T10:13:52Z</time>
      </trkpt>
      <trkpt lat="42.929730" lon="-0.291672">
        <ele>2595.3</ele>
        <time>2020-06-27T10:14:07Z</time>
      </trkpt>
      <trkpt lat="42.929691" lon="-0.291568">
        <ele>2598.2</ele>
        <time>2020-06-27T10:14:23Z</time>
      </trkpt>
      <trkpt lat="42.929658" lon="-0.291462">
        <ele>2599.9</ele>
        <time>2020-06-27T10:14:42Z</time>
      </trkpt>
      <trkpt lat="42.929621" lon="-0.291339">
        <ele>2602.5</ele>
        <time>2020-06-27T10:14:52Z</time>
      </trkpt>
      <trkpt lat="42.929570" lon="-0.291233">
        <ele>2605.4</ele>
        <time>2020-06-27T10:15:04Z</time>
      </trkpt>
      <trkpt lat="42.929521" lon="-0.291118">
        <ele>2608.6</ele>
        <time>2020-06-27T10:15:21Z</time>
      </trkpt>
      <trkpt lat="42.929474" lon="-0.291006">
        <ele>2608.7</ele>
        <time>2020-06-27T10:15:34Z</time>
      </trkpt>
      <trkpt lat="42.929443" lon="-0.290876">
        <ele>2608.7</ele>
        <time>2020-06-27T10:15:48Z</time>
      </trkpt>
      <trkpt lat="42.929397" lon="-0.290768">
        <ele>2608.7</ele>
        <time>2020-06-27T10:15:59Z</time>
      </trkpt>
      <trkpt lat="42.929353" lon="-0.290660">
        <ele>2607.9</ele>
        <time>2020-06-27T10:16:09Z</time>
      </trkpt>
      <trkpt lat="42.929338" lon="-0.290534">
        <ele>2607.1</ele>
        <time>2020-06-27T10:16:18Z</time>
      </trkpt>
      <trkpt lat="42.929304" lon="-0.290405">
        <ele>2607.1</ele>
        <time>2020-06-27T10:16:27Z</time>
      </trkpt>
      <trkpt lat="42.929281" lon="-0.290268">
        <ele>2604.8</ele>
        <time>2020-06-27T10:16:36Z</time>
      </trkpt>
      <trkpt lat="42.929272" lon="-0.290140">
        <ele>2604.7</ele>
        <time>2020-06-27T10:16:44Z</time>
      </trkpt>
      <trkpt lat="42.929255" lon="-0.290006">
        <ele>2604.7</ele>
        <time>2020-06-27T10:16:57Z</time>
      </trkpt>
      <trkpt lat="42.929250" lon="-0.289873">
        <ele>2604.7</ele>
        <time>2020-06-27T10:17:07Z</time>
      </trkpt>
      <trkpt lat="42.929265" lon="-0.289760">
        <ele>2605.4</ele>
        <time>2020-06-27T10:17:51Z</time>
      </trkpt>
      <trkpt lat="42.929267" lon="-0.289672">
        <ele>2607.9</ele>
        <time>2020-06-27T10:18:20Z</time>
      </trkpt>
      <trkpt lat="42.929276" lon="-0.289560">
        <ele>2608.8</ele>
        <time>2020-06-27T10:18:41Z</time>
      </trkpt>
      <trkpt lat="42.929279" lon="-0.289450">
        <ele>2613.9</ele>
        <time>2020-06-27T10:19:10Z</time>
      </trkpt>
      <trkpt lat="42.929280" lon="-0.289332">
        <ele>2615.8</ele>
        <time>2020-06-27T10:19:24Z</time>
      </trkpt>
      <trkpt lat="42.929272" lon="-0.289197">
        <ele>2617.5</ele>
        <time>2020-06-27T10:19:41Z</time>
      </trkpt>
      <trkpt lat="42.929258" lon="-0.289079">
        <ele>2620.1</ele>
        <time>2020-06-27T10:20:01Z</time>
      </trkpt>
      <trkpt lat="42.929246" lon="-0.288950">
        <ele>2621.6</ele>
        <time>2020-06-27T10:20:57Z</time>
      </trkpt>
      <trkpt lat="42.929227" lon="-0.288826">
        <ele>2624.0</ele>
        <time>2020-06-27T10:21:10Z</time>
      </trkpt>
      <trkpt lat="42.929247" lon="-0.288707">
        <ele>2624.0</ele>
        <time>2020-06-27T10:21:40Z</time>
      </trkpt>
      <trkpt lat="42.929263" lon="-0.288574">
        <ele>2624.0</ele>
        <time>2020-06-27T10:21:50Z</time>
      </trkpt>
      <trkpt lat="42.929256" lon="-0.288438">
        <ele>2621.8</ele>
        <time>2020-06-27T10:22:00Z</time>
      </trkpt>
      <trkpt lat="42.929260" lon="-0.288312">
        <ele>2621.8</ele>
        <time>2020-06-27T10:22:11Z</time>
      </trkpt>
      <trkpt lat="42.929236" lon="-0.288168">
        <ele>2621.8</ele>
        <time>2020-06-27T10:22:20Z</time>
      </trkpt>
      <trkpt lat="42.929225" lon="-0.288031">
        <ele>2621.7</ele>
        <time>2020-06-27T10:22:33Z</time>
      </trkpt>
      <trkpt lat="42.929235" lon="-0.287893">
        <ele>2621.6</ele>
        <time>2020-06-27T10:22:44Z</time>
      </trkpt>
      <trkpt lat="42.929259" lon="-0.287780">
        <ele>2624.0</ele>
        <time>2020-06-27T10:22:54Z</time>
      </trkpt>
      <trkpt lat="42.929270" lon="-0.287643">
        <ele>2624.1</ele>
        <time>2020-06-27T10:23:04Z</time>
      </trkpt>
      <trkpt lat="42.929300" lon="-0.287524">
        <ele>2624.1</ele>
        <time>2020-06-27T10:23:19Z</time>
      </trkpt>
      <trkpt lat="42.929299" lon="-0.287394">
        <ele>2622.5</ele>
        <time>2020-06-27T10:23:29Z</time>
      </trkpt>
      <trkpt lat="42.929308" lon="-0.287258">
        <ele>2622.4</ele>
        <time>2020-06-27T10:23:58Z</time>
      </trkpt>
      <trkpt lat="42.929351" lon="-0.287142">
        <ele>2622.4</ele>
        <time>2020-06-27T10:24:07Z</time>
      </trkpt>
      <trkpt lat="42.929386" lon="-0.287007">
        <ele>2622.5</ele>
        <time>2020-06-27T10:24:16Z</time>
      </trkpt>
      <trkpt lat="42.929417" lon="-0.286869">
        <ele>2621.7</ele>
        <time>2020-06-27T10:24:28Z</time>
      </trkpt>
      <trkpt lat="42.929444" lon="-0.286739">
        <ele>2622.6</ele>
        <time>2020-06-27T10:24:38Z</time>
      </trkpt>
      <trkpt lat="42.929485" lon="-0.286613">
        <ele>2624.2</ele>
        <time>2020-06-27T10:24:51Z</time>
      </trkpt>
      <trkpt lat="42.929511" lon="-0.286489">
        <ele>2627.4</ele>
        <time>2020-06-27T10:25:03Z</time>
      </trkpt>
      <trkpt lat="42.929544" lon="-0.286356">
        <ele>2630.6</ele>
        <time>2020-06-27T10:25:26Z</time>
      </trkpt>
      <trkpt lat="42.929568" lon="-0.286240">
        <ele>2633.3</ele>
        <time>2020-06-27T10:25:51Z</time>
      </trkpt>
      <trkpt lat="42.929644" lon="-0.286228">
        <ele>2639.3</ele>
        <time>2020-06-27T10:26:17Z</time>
      </trkpt>
      <trkpt lat="42.929661" lon="-0.286153">
        <ele>2645.6</ele>
        <time>2020-06-27T10:26:46Z</time>
      </trkpt>
      <trkpt lat="42.929659" lon="-0.286023">
        <ele>2645.5</ele>
        <time>2020-06-27T10:27:01Z</time>
      </trkpt>
      <trkpt lat="42.929672" lon="-0.285896">
        <ele>2645.3</ele>
        <time>2020-06-27T10:27:11Z</time>
      </trkpt>
      <trkpt lat="42.929714" lon="-0.285803">
        <ele>2649.0</ele>
        <time>2020-06-27T10:27:25Z</time>
      </trkpt>
      <trkpt lat="42.929761" lon="-0.285754">
        <ele>2653.5</ele>
        <time>2020-06-27T10:27:53Z</time>
      </trkpt>
      <trkpt lat="42.929835" lon="-0.285690">
        <ele>2659.3</ele>
        <time>2020-06-27T10:28:17Z</time>
      </trkpt>
      <trkpt lat="42.929901" lon="-0.285614">
        <ele>2662.0</ele>
        <time>2020-06-27T10:28:35Z</time>
      </trkpt>
      <trkpt lat="42.929975" lon="-0.285602">
        <ele>2666.4</ele>
        <time>2020-06-27T10:28:51Z</time>
      </trkpt>
      <trkpt lat="42.929987" lon="-0.285516">
        <ele>2664.8</ele>
        <time>2020-06-27T10:30:19Z</time>
      </trkpt>
      <trkpt lat="42.930016" lon="-0.285396">
        <ele>2662.2</ele>
        <time>2020-06-27T10:30:36Z</time>
      </trkpt>
      <trkpt lat="42.930066" lon="-0.285332">
        <ele>2658.5</ele>
        <time>2020-06-27T10:30:53Z</time>
      </trkpt>
      <trkpt lat="42.930125" lon="-0.285225">
        <ele>2654.8</ele>
        <time>2020-06-27T10:31:10Z</time>
      </trkpt>
      <trkpt lat="42.930193" lon="-0.285126">
        <ele>2651.6</ele>
        <time>2020-06-27T10:31:26Z</time>
      </trkpt>
      <trkpt lat="42.930245" lon="-0.285053">
        <ele>2653.2</ele>
        <time>2020-06-27T10:31:48Z</time>
      </trkpt>
      <trkpt lat="42.930291" lon="-0.284931">
        <ele>2653.3</ele>
        <time>2020-06-27T10:32:01Z</time>
      </trkpt>
      <trkpt lat="42.930353" lon="-0.284815">
        <ele>2654.1</ele>
        <time>2020-06-27T10:32:20Z</time>
      </trkpt>
      <trkpt lat="42.930401" lon="-0.284690">
        <ele>2655.9</ele>
        <time>2020-06-27T10:32:51Z</time>
      </trkpt>
      <trkpt lat="42.930460" lon="-0.284580">
        <ele>2655.9</ele>
        <time>2020-06-27T10:33:10Z</time>
      </trkpt>
      <trkpt lat="42.930525" lon="-0.284466">
        <ele>2658.8</ele>
        <time>2020-06-27T10:33:28Z</time>
      </trkpt>
      <trkpt lat="42.930574" lon="-0.284401">
        <ele>2662.8</ele>
        <time>2020-06-27T10:33:50Z</time>
      </trkpt>
      <trkpt lat="42.930645" lon="-0.284331">
        <ele>2668.1</ele>
        <time>2020-06-27T10:34:11Z</time>
      </trkpt>
      <trkpt lat="42.930691" lon="-0.284212">
        <ele>2676.0</ele>
        <time>2020-06-27T10:35:09Z</time>
      </trkpt>
      <trkpt lat="42.930726" lon="-0.284131">
        <ele>2675.9</ele>
        <time>2020-06-27T10:36:14Z</time>
      </trkpt>
      <trkpt lat="42.930773" lon="-0.284014">
        <ele>2675.9</ele>
        <time>2020-06-27T10:36:36Z</time>
      </trkpt>
      <trkpt lat="42.930828" lon="-0.283924">
        <ele>2679.4</ele>
        <time>2020-06-27T10:37:10Z</time>
      </trkpt>
      <trkpt lat="42.930875" lon="-0.283828">
        <ele>2684.5</ele>
        <time>2020-06-27T10:37:54Z</time>
      </trkpt>
      <trkpt lat="42.930936" lon="-0.283772">
        <ele>2684.6</ele>
        <time>2020-06-27T10:38:22Z</time>
      </trkpt>
      <trkpt lat="42.930957" lon="-0.283735">
        <ele>2680.9</ele>
        <time>2020-06-27T11:35:50Z</time>
      </trkpt>
      <trkpt lat="42.931041" lon="-0.283760">
        <ele>2675.5</ele>
        <time>2020-06-27T11:36:15Z</time>
      </trkpt>
      <trkpt lat="42.931120" lon="-0.283797">
        <ele>2675.6</ele>
        <time>2020-06-27T11:36:36Z</time>
      </trkpt>
    </trkseg>
  </trk>
</gpx>

